sensor_id;sensor_type;location;lat;lon;timestamp;P1;durP1;ratioP1;P2;durP2;ratioP2
4738;SDS011;2383;48.632;10.156;2023-04-28T00:02:46;8.83;;;6.27;;
4738;SDS011;2383;48.632;10.156;2023-04-28T00:06:49;9.57;;;5.83;;
4738;SDS011;2383;48.632;10.156;2023-04-28T00:10:51;7.47;;;5.47;;
4738;SDS011;2383;48.632;10.156;2023-04-28T00:14:53;8.57;;;5.33;;
4738;SDS011;2383;48.632;10.156;2023-04-28T00:18:56;7.33;;;5.17;;
4738;SDS011;2383;48.632;10.156;2023-04-28T00:22:58;6.87;;;4.47;;
4738;SDS011;2383;48.632;10.156;2023-04-28T00:27:01;8.20;;;5.07;;
4738;SDS011;2383;48.632;10.156;2023-04-28T00:31:08;7.73;;;5.70;;
4738;SDS011;2383;48.632;10.156;2023-04-28T00:35:13;9.47;;;5.20;;
4738;SDS011;2383;48.632;10.156;2023-04-28T00:39:15;7.03;;;4.80;;
4738;SDS011;2383;48.632;10.156;2023-04-28T00:43:18;9.63;;;4.73;;
4738;SDS011;2383;48.632;10.156;2023-04-28T00:47:20;10.67;;;5.07;;
4738;SDS011;2383;48.632;10.156;2023-04-28T00:51:25;10.40;;;5.10;;
4738;SDS011;2383;48.632;10.156;2023-04-28T00:55:30;9.00;;;5.20;;
4738;SDS011;2383;48.632;10.156;2023-04-28T00:59:33;8.75;;;5.03;;
4738;SDS011;2383;48.632;10.156;2023-04-28T01:03:37;7.40;;;5.13;;
4738;SDS011;2383;48.632;10.156;2023-04-28T01:07:42;8.40;;;5.43;;
4738;SDS011;2383;48.632;10.156;2023-04-28T01:11:44;8.03;;;5.63;;
4738;SDS011;2383;48.632;10.156;2023-04-28T01:15:53;8.03;;;5.87;;
4738;SDS011;2383;48.632;10.156;2023-04-28T01:19:56;6.97;;;5.40;;
4738;SDS011;2383;48.632;10.156;2023-04-28T01:23:58;11.53;;;5.57;;
4738;SDS011;2383;48.632;10.156;2023-04-28T01:28:01;7.13;;;4.90;;
4738;SDS011;2383;48.632;10.156;2023-04-28T01:32:04;13.43;;;4.87;;
4738;SDS011;2383;48.632;10.156;2023-04-28T01:36:07;6.17;;;4.43;;
4738;SDS011;2383;48.632;10.156;2023-04-28T01:40:10;6.97;;;4.97;;
4738;SDS011;2383;48.632;10.156;2023-04-28T01:44:13;7.57;;;5.80;;
4738;SDS011;2383;48.632;10.156;2023-04-28T01:48:15;9.10;;;4.63;;
4738;SDS011;2383;48.632;10.156;2023-04-28T01:52:19;8.00;;;5.07;;
4738;SDS011;2383;48.632;10.156;2023-04-28T01:56:23;7.87;;;4.33;;
4738;SDS011;2383;48.632;10.156;2023-04-28T02:00:27;7.87;;;5.10;;
4738;SDS011;2383;48.632;10.156;2023-04-28T02:04:29;10.77;;;5.27;;
4738;SDS011;2383;48.632;10.156;2023-04-28T02:08:31;8.97;;;4.50;;
4738;SDS011;2383;48.632;10.156;2023-04-28T02:12:33;12.00;;;5.60;;
4738;SDS011;2383;48.632;10.156;2023-04-28T02:16:36;9.73;;;5.45;;
4738;SDS011;2383;48.632;10.156;2023-04-28T02:20:38;10.63;;;5.45;;
4738;SDS011;2383;48.632;10.156;2023-04-28T02:24:41;6.32;;;5.30;;
4738;SDS011;2383;48.632;10.156;2023-04-28T02:28:43;6.77;;;5.03;;
4738;SDS011;2383;48.632;10.156;2023-04-28T02:32:46;9.80;;;5.40;;
4738;SDS011;2383;48.632;10.156;2023-04-28T02:36:49;7.38;;;5.45;;
4738;SDS011;2383;48.632;10.156;2023-04-28T02:40:59;10.57;;;5.90;;
4738;SDS011;2383;48.632;10.156;2023-04-28T02:45:02;5.97;;;4.97;;
4738;SDS011;2383;48.632;10.156;2023-04-28T02:49:04;7.57;;;5.07;;
4738;SDS011;2383;48.632;10.156;2023-04-28T02:53:06;12.17;;;6.43;;
4738;SDS011;2383;48.632;10.156;2023-04-28T02:57:08;8.93;;;5.82;;
4738;SDS011;2383;48.632;10.156;2023-04-28T03:01:10;9.10;;;5.80;;
4738;SDS011;2383;48.632;10.156;2023-04-28T03:05:12;8.30;;;6.03;;
4738;SDS011;2383;48.632;10.156;2023-04-28T03:09:14;10.27;;;6.00;;
4738;SDS011;2383;48.632;10.156;2023-04-28T03:13:16;13.07;;;7.00;;
4738;SDS011;2383;48.632;10.156;2023-04-28T03:17:19;9.97;;;6.43;;
4738;SDS011;2383;48.632;10.156;2023-04-28T03:21:21;12.53;;;6.30;;
4738;SDS011;2383;48.632;10.156;2023-04-28T03:25:23;7.70;;;6.07;;
4738;SDS011;2383;48.632;10.156;2023-04-28T03:29:26;9.20;;;6.00;;
4738;SDS011;2383;48.632;10.156;2023-04-28T03:33:28;9.63;;;6.70;;
4738;SDS011;2383;48.632;10.156;2023-04-28T03:37:31;12.40;;;7.47;;
4738;SDS011;2383;48.632;10.156;2023-04-28T03:41:33;9.10;;;6.50;;
4738;SDS011;2383;48.632;10.156;2023-04-28T03:45:54;13.27;;;7.27;;
4738;SDS011;2383;48.632;10.156;2023-04-28T03:49:56;12.47;;;7.03;;
4738;SDS011;2383;48.632;10.156;2023-04-28T03:53:59;8.47;;;6.60;;
4738;SDS011;2383;48.632;10.156;2023-04-28T03:58:03;11.93;;;8.87;;
4738;SDS011;2383;48.632;10.156;2023-04-28T04:02:04;10.25;;;6.75;;
4738;SDS011;2383;48.632;10.156;2023-04-28T04:06:06;8.88;;;6.78;;
4738;SDS011;2383;48.632;10.156;2023-04-28T04:10:09;12.83;;;8.53;;
4738;SDS011;2383;48.632;10.156;2023-04-28T04:14:14;10.23;;;7.20;;
4738;SDS011;2383;48.632;10.156;2023-04-28T04:18:17;9.27;;;7.17;;
4738;SDS011;2383;48.632;10.156;2023-04-28T04:22:38;13.30;;;7.73;;
4738;SDS011;2383;48.632;10.156;2023-04-28T04:26:40;9.10;;;6.63;;
4738;SDS011;2383;48.632;10.156;2023-04-28T04:31:05;11.67;;;7.33;;
4738;SDS011;2383;48.632;10.156;2023-04-28T04:35:09;9.53;;;7.77;;
4738;SDS011;2383;48.632;10.156;2023-04-28T04:39:11;13.13;;;8.17;;
4738;SDS011;2383;48.632;10.156;2023-04-28T04:43:13;9.90;;;7.83;;
4738;SDS011;2383;48.632;10.156;2023-04-28T04:47:22;13.03;;;8.03;;
4738;SDS011;2383;48.632;10.156;2023-04-28T04:51:24;11.43;;;7.73;;
4738;SDS011;2383;48.632;10.156;2023-04-28T04:55:29;10.93;;;8.50;;
4738;SDS011;2383;48.632;10.156;2023-04-28T04:59:32;10.07;;;8.10;;
4738;SDS011;2383;48.632;10.156;2023-04-28T05:03:41;13.60;;;9.63;;
4738;SDS011;2383;48.632;10.156;2023-04-28T05:07:44;15.20;;;10.00;;
4738;SDS011;2383;48.632;10.156;2023-04-28T05:11:47;15.07;;;11.40;;
4738;SDS011;2383;48.632;10.156;2023-04-28T05:15:50;17.53;;;14.10;;
4738;SDS011;2383;48.632;10.156;2023-04-28T05:20:15;20.90;;;16.40;;
4738;SDS011;2383;48.632;10.156;2023-04-28T05:24:17;15.57;;;11.80;;
4738;SDS011;2383;48.632;10.156;2023-04-28T05:28:24;15.57;;;12.07;;
4738;SDS011;2383;48.632;10.156;2023-04-28T05:32:29;13.83;;;10.60;;
4738;SDS011;2383;48.632;10.156;2023-04-28T05:36:31;11.93;;;9.90;;
4738;SDS011;2383;48.632;10.156;2023-04-28T05:40:33;15.17;;;9.93;;
4738;SDS011;2383;48.632;10.156;2023-04-28T05:44:35;13.73;;;9.97;;
4738;SDS011;2383;48.632;10.156;2023-04-28T05:48:37;11.75;;;10.55;;
4738;SDS011;2383;48.632;10.156;2023-04-28T05:52:39;16.03;;;10.13;;
4738;SDS011;2383;48.632;10.156;2023-04-28T05:56:42;12.87;;;9.73;;
4738;SDS011;2383;48.632;10.156;2023-04-28T06:00:44;10.97;;;9.77;;
4738;SDS011;2383;48.632;10.156;2023-04-28T06:04:45;13.20;;;10.17;;
4738;SDS011;2383;48.632;10.156;2023-04-28T06:08:49;13.23;;;10.10;;
4738;SDS011;2383;48.632;10.156;2023-04-28T06:12:51;13.40;;;10.40;;
4738;SDS011;2383;48.632;10.156;2023-04-28T06:16:53;15.63;;;11.53;;
4738;SDS011;2383;48.632;10.156;2023-04-28T06:20:55;12.23;;;10.03;;
4738;SDS011;2383;48.632;10.156;2023-04-28T06:24:57;17.17;;;11.50;;
4738;SDS011;2383;48.632;10.156;2023-04-28T06:29:07;13.80;;;11.57;;
4738;SDS011;2383;48.632;10.156;2023-04-28T06:33:09;16.20;;;11.90;;
4738;SDS011;2383;48.632;10.156;2023-04-28T06:37:13;19.00;;;13.07;;
4738;SDS011;2383;48.632;10.156;2023-04-28T06:41:15;15.80;;;12.32;;
4738;SDS011;2383;48.632;10.156;2023-04-28T06:45:21;16.70;;;12.47;;
4738;SDS011;2383;48.632;10.156;2023-04-28T06:49:23;22.27;;;14.70;;
4738;SDS011;2383;48.632;10.156;2023-04-28T06:57:59;16.20;;;12.90;;
4738;SDS011;2383;48.632;10.156;2023-04-28T07:02:01;18.05;;;14.02;;
4738;SDS011;2383;48.632;10.156;2023-04-28T07:06:04;18.23;;;14.50;;
4738;SDS011;2383;48.632;10.156;2023-04-28T07:10:06;19.40;;;14.50;;
4738;SDS011;2383;48.632;10.156;2023-04-28T07:14:09;21.67;;;16.98;;
4738;SDS011;2383;48.632;10.156;2023-04-28T07:18:11;18.63;;;14.65;;
4738;SDS011;2383;48.632;10.156;2023-04-28T07:22:13;17.60;;;14.85;;
4738;SDS011;2383;48.632;10.156;2023-04-28T07:26:15;18.98;;;14.52;;
4738;SDS011;2383;48.632;10.156;2023-04-28T07:30:18;17.60;;;15.10;;
4738;SDS011;2383;48.632;10.156;2023-04-28T07:34:26;18.48;;;14.93;;
4738;SDS011;2383;48.632;10.156;2023-04-28T07:38:28;16.00;;;13.60;;
4738;SDS011;2383;48.632;10.156;2023-04-28T07:42:30;17.10;;;14.30;;
4738;SDS011;2383;48.632;10.156;2023-04-28T07:46:33;18.67;;;14.70;;
4738;SDS011;2383;48.632;10.156;2023-04-28T07:50:35;14.63;;;12.93;;
4738;SDS011;2383;48.632;10.156;2023-04-28T07:54:37;14.20;;;12.63;;
4738;SDS011;2383;48.632;10.156;2023-04-28T07:58:40;14.70;;;13.20;;
4738;SDS011;2383;48.632;10.156;2023-04-28T08:02:42;16.23;;;12.63;;
4738;SDS011;2383;48.632;10.156;2023-04-28T08:06:44;15.30;;;12.10;;
4738;SDS011;2383;48.632;10.156;2023-04-28T08:10:46;12.88;;;11.50;;
4738;SDS011;2383;48.632;10.156;2023-04-28T08:14:51;11.15;;;9.48;;
4738;SDS011;2383;48.632;10.156;2023-04-28T08:18:53;11.87;;;9.97;;
4738;SDS011;2383;48.632;10.156;2023-04-28T08:22:55;8.95;;;8.10;;
4738;SDS011;2383;48.632;10.156;2023-04-28T08:26:57;11.95;;;9.55;;
4738;SDS011;2383;48.632;10.156;2023-04-28T08:30:59;11.63;;;9.43;;
4738;SDS011;2383;48.632;10.156;2023-04-28T08:35:01;11.25;;;9.93;;
4738;SDS011;2383;48.632;10.156;2023-04-28T08:39:03;9.48;;;8.48;;
4738;SDS011;2383;48.632;10.156;2023-04-28T08:43:08;51.22;;;29.02;;
4738;SDS011;2383;48.632;10.156;2023-04-28T08:47:12;17.85;;;14.00;;
4738;SDS011;2383;48.632;10.156;2023-04-28T08:51:15;13.25;;;11.85;;
4738;SDS011;2383;48.632;10.156;2023-04-28T08:55:26;14.68;;;12.23;;
4738;SDS011;2383;48.632;10.156;2023-04-28T08:59:29;13.40;;;10.20;;
4738;SDS011;2383;48.632;10.156;2023-04-28T09:03:31;8.97;;;8.07;;
4738;SDS011;2383;48.632;10.156;2023-04-28T09:07:34;8.90;;;6.27;;
4738;SDS011;2383;48.632;10.156;2023-04-28T09:11:44;13.32;;;12.02;;
4738;SDS011;2383;48.632;10.156;2023-04-28T09:15:54;7.07;;;6.13;;
4738;SDS011;2383;48.632;10.156;2023-04-28T09:20:00;10.15;;;8.98;;
4738;SDS011;2383;48.632;10.156;2023-04-28T09:24:04;7.90;;;7.03;;
4738;SDS011;2383;48.632;10.156;2023-04-28T09:28:19;5.53;;;4.95;;
4738;SDS011;2383;48.632;10.156;2023-04-28T09:32:22;6.10;;;5.50;;
4738;SDS011;2383;48.632;10.156;2023-04-28T09:36:26;6.43;;;4.97;;
4738;SDS011;2383;48.632;10.156;2023-04-28T09:40:31;4.93;;;3.78;;
4738;SDS011;2383;48.632;10.156;2023-04-28T09:44:34;8.70;;;7.57;;
4738;SDS011;2383;48.632;10.156;2023-04-28T09:48:37;5.45;;;4.30;;
4738;SDS011;2383;48.632;10.156;2023-04-28T09:52:43;4.80;;;3.83;;
4738;SDS011;2383;48.632;10.156;2023-04-28T09:57:25;6.32;;;4.20;;
4738;SDS011;2383;48.632;10.156;2023-04-28T10:01:52;5.00;;;3.85;;
4738;SDS011;2383;48.632;10.156;2023-04-28T10:06:26;3.90;;;3.50;;
4738;SDS011;2383;48.632;10.156;2023-04-28T10:10:32;3.58;;;3.28;;
4738;SDS011;2383;48.632;10.156;2023-04-28T10:14:49;2.95;;;2.65;;
4738;SDS011;2383;48.632;10.156;2023-04-28T10:18:55;3.30;;;1.92;;
4738;SDS011;2383;48.632;10.156;2023-04-28T10:23:04;2.20;;;2.00;;
4738;SDS011;2383;48.632;10.156;2023-04-28T10:27:10;2.55;;;1.50;;
4738;SDS011;2383;48.632;10.156;2023-04-28T10:31:14;3.08;;;2.42;;
4738;SDS011;2383;48.632;10.156;2023-04-28T10:35:45;2.35;;;1.95;;
4738;SDS011;2383;48.632;10.156;2023-04-28T10:40:27;1.42;;;1.33;;
4738;SDS011;2383;48.632;10.156;2023-04-28T10:52:48;1.73;;;1.63;;
4738;SDS011;2383;48.632;10.156;2023-04-28T10:57:13;2.80;;;1.80;;
4738;SDS011;2383;48.632;10.156;2023-04-28T11:05:21;2.42;;;2.22;;
4738;SDS011;2383;48.632;10.156;2023-04-28T11:13:36;1.60;;;1.50;;
4738;SDS011;2383;48.632;10.156;2023-04-28T11:17:40;3.08;;;2.78;;
4738;SDS011;2383;48.632;10.156;2023-04-28T11:21:42;2.33;;;2.10;;
4738;SDS011;2383;48.632;10.156;2023-04-28T11:25:54;2.08;;;1.85;;
4738;SDS011;2383;48.632;10.156;2023-04-28T11:29:58;2.35;;;1.80;;
4738;SDS011;2383;48.632;10.156;2023-04-28T11:34:02;1.55;;;1.45;;
4738;SDS011;2383;48.632;10.156;2023-04-28T11:38:12;2.60;;;1.83;;
4738;SDS011;2383;48.632;10.156;2023-04-28T11:42:14;20.70;;;14.90;;
4738;SDS011;2383;48.632;10.156;2023-04-28T11:46:18;2.28;;;2.08;;
4738;SDS011;2383;48.632;10.156;2023-04-28T11:50:43;1.65;;;1.50;;
4738;SDS011;2383;48.632;10.156;2023-04-28T11:54:51;1.55;;;1.45;;
4738;SDS011;2383;48.632;10.156;2023-04-28T11:58:59;1.40;;;1.30;;
4738;SDS011;2383;48.632;10.156;2023-04-28T12:03:07;1.40;;;1.30;;
4738;SDS011;2383;48.632;10.156;2023-04-28T12:07:10;0.85;;;0.85;;
4738;SDS011;2383;48.632;10.156;2023-04-28T12:11:19;2.92;;;0.95;;
4738;SDS011;2383;48.632;10.156;2023-04-28T12:19:52;1.67;;;1.00;;
4738;SDS011;2383;48.632;10.156;2023-04-28T12:23:58;1.10;;;1.00;;
4738;SDS011;2383;48.632;10.156;2023-04-28T12:28:04;0.80;;;0.80;;
4738;SDS011;2383;48.632;10.156;2023-04-28T12:32:09;1.08;;;1.00;;
4738;SDS011;2383;48.632;10.156;2023-04-28T12:36:12;1.00;;;0.80;;
4738;SDS011;2383;48.632;10.156;2023-04-28T12:40:14;0.80;;;0.80;;
4738;SDS011;2383;48.632;10.156;2023-04-28T12:44:16;0.88;;;0.88;;
4738;SDS011;2383;48.632;10.156;2023-04-28T12:48:18;1.40;;;1.00;;
4738;SDS011;2383;48.632;10.156;2023-04-28T12:52:20;0.90;;;0.90;;
4738;SDS011;2383;48.632;10.156;2023-04-28T12:56:23;0.85;;;0.80;;
4738;SDS011;2383;48.632;10.156;2023-04-28T13:00:25;1.42;;;0.77;;
4738;SDS011;2383;48.632;10.156;2023-04-28T13:04:27;0.80;;;0.80;;
4738;SDS011;2383;48.632;10.156;2023-04-28T13:08:29;1.75;;;1.00;;
4738;SDS011;2383;48.632;10.156;2023-04-28T13:12:34;1.05;;;0.95;;
4738;SDS011;2383;48.632;10.156;2023-04-28T13:16:36;2.88;;;1.20;;
4738;SDS011;2383;48.632;10.156;2023-04-28T13:20:38;6.00;;;1.80;;
4738;SDS011;2383;48.632;10.156;2023-04-28T13:24:41;1.15;;;0.98;;
4738;SDS011;2383;48.632;10.156;2023-04-28T13:28:43;2.00;;;1.35;;
4738;SDS011;2383;48.632;10.156;2023-04-28T13:32:47;3.83;;;2.08;;
4738;SDS011;2383;48.632;10.156;2023-04-28T13:36:50;1.20;;;0.80;;
4738;SDS011;2383;48.632;10.156;2023-04-28T13:40:54;1.23;;;0.90;;
4738;SDS011;2383;48.632;10.156;2023-04-28T13:44:56;1.92;;;1.30;;
4738;SDS011;2383;48.632;10.156;2023-04-28T13:48:58;1.08;;;0.98;;
4738;SDS011;2383;48.632;10.156;2023-04-28T13:53:00;1.92;;;0.82;;
4738;SDS011;2383;48.632;10.156;2023-04-28T13:57:02;0.70;;;0.70;;
4738;SDS011;2383;48.632;10.156;2023-04-28T14:01:04;0.75;;;0.75;;
4738;SDS011;2383;48.632;10.156;2023-04-28T14:05:08;2.50;;;1.30;;
4738;SDS011;2383;48.632;10.156;2023-04-28T14:09:11;1.00;;;0.70;;
4738;SDS011;2383;48.632;10.156;2023-04-28T14:13:13;4.47;;;1.25;;
4738;SDS011;2383;48.632;10.156;2023-04-28T14:17:15;12.13;;;7.15;;
4738;SDS011;2383;48.632;10.156;2023-04-28T14:21:17;2.55;;;2.20;;
4738;SDS011;2383;48.632;10.156;2023-04-28T14:25:19;1.23;;;1.00;;
4738;SDS011;2383;48.632;10.156;2023-04-28T14:29:21;1.30;;;1.20;;
4738;SDS011;2383;48.632;10.156;2023-04-28T14:33:23;1.65;;;1.30;;
4738;SDS011;2383;48.632;10.156;2023-04-28T14:37:25;1.80;;;1.30;;
4738;SDS011;2383;48.632;10.156;2023-04-28T14:41:28;1.83;;;1.58;;
4738;SDS011;2383;48.632;10.156;2023-04-28T14:45:32;1.95;;;0.85;;
4738;SDS011;2383;48.632;10.156;2023-04-28T14:49:36;1.15;;;0.80;;
4738;SDS011;2383;48.632;10.156;2023-04-28T14:53:38;2.13;;;0.80;;
4738;SDS011;2383;48.632;10.156;2023-04-28T14:57:40;2.07;;;1.50;;
4738;SDS011;2383;48.632;10.156;2023-04-28T15:06:38;2.67;;;2.30;;
4738;SDS011;2383;48.632;10.156;2023-04-28T15:10:40;3.35;;;2.42;;
4738;SDS011;2383;48.632;10.156;2023-04-28T15:14:42;4.88;;;2.40;;
4738;SDS011;2383;48.632;10.156;2023-04-28T15:18:44;1.73;;;1.60;;
4738;SDS011;2383;48.632;10.156;2023-04-28T15:22:46;2.83;;;2.38;;
4738;SDS011;2383;48.632;10.156;2023-04-28T15:26:49;19.48;;;12.82;;
4738;SDS011;2383;48.632;10.156;2023-04-28T15:31:04;6.95;;;3.80;;
4738;SDS011;2383;48.632;10.156;2023-04-28T15:35:06;3.08;;;2.22;;
4738;SDS011;2383;48.632;10.156;2023-04-28T15:39:08;6.90;;;4.88;;
4738;SDS011;2383;48.632;10.156;2023-04-28T15:43:10;34.30;;;24.80;;
4738;SDS011;2383;48.632;10.156;2023-04-28T15:47:13;1.95;;;1.13;;
4738;SDS011;2383;48.632;10.156;2023-04-28T15:51:15;1.05;;;0.70;;
4738;SDS011;2383;48.632;10.156;2023-04-28T15:55:18;1.23;;;1.13;;
4738;SDS011;2383;48.632;10.156;2023-04-28T15:59:22;1.90;;;1.27;;
4738;SDS011;2383;48.632;10.156;2023-04-28T16:03:25;4.22;;;1.10;;
4738;SDS011;2383;48.632;10.156;2023-04-28T16:07:27;1.48;;;1.10;;
4738;SDS011;2383;48.632;10.156;2023-04-28T16:11:31;2.40;;;1.40;;
4738;SDS011;2383;48.632;10.156;2023-04-28T16:15:33;3.40;;;1.90;;
4738;SDS011;2383;48.632;10.156;2023-04-28T16:19:35;2.22;;;1.80;;
4738;SDS011;2383;48.632;10.156;2023-04-28T16:23:37;3.00;;;2.10;;
4738;SDS011;2383;48.632;10.156;2023-04-28T16:27:39;2.63;;;2.00;;
4738;SDS011;2383;48.632;10.156;2023-04-28T16:31:43;4.47;;;2.33;;
4738;SDS011;2383;48.632;10.156;2023-04-28T16:35:52;5.18;;;2.97;;
4738;SDS011;2383;48.632;10.156;2023-04-28T16:39:56;4.40;;;2.30;;
4738;SDS011;2383;48.632;10.156;2023-04-28T16:43:58;3.97;;;3.35;;
4738;SDS011;2383;48.632;10.156;2023-04-28T16:47:59;5.68;;;4.40;;
4738;SDS011;2383;48.632;10.156;2023-04-28T16:52:02;3.72;;;2.58;;
4738;SDS011;2383;48.632;10.156;2023-04-28T16:56:05;2.67;;;2.40;;
4738;SDS011;2383;48.632;10.156;2023-04-28T17:00:11;6.45;;;5.28;;
4738;SDS011;2383;48.632;10.156;2023-04-28T17:04:14;8.43;;;6.93;;
4738;SDS011;2383;48.632;10.156;2023-04-28T17:08:17;9.55;;;8.55;;
4738;SDS011;2383;48.632;10.156;2023-04-28T17:12:20;13.95;;;11.63;;
4738;SDS011;2383;48.632;10.156;2023-04-28T17:16:23;14.82;;;9.48;;
4738;SDS011;2383;48.632;10.156;2023-04-28T17:20:25;6.50;;;5.50;;
4738;SDS011;2383;48.632;10.156;2023-04-28T17:24:30;13.75;;;8.10;;
4738;SDS011;2383;48.632;10.156;2023-04-28T17:28:32;10.68;;;7.03;;
4738;SDS011;2383;48.632;10.156;2023-04-28T17:32:35;7.10;;;6.40;;
4738;SDS011;2383;48.632;10.156;2023-04-28T17:36:37;6.32;;;3.72;;
4738;SDS011;2383;48.632;10.156;2023-04-28T17:40:40;6.78;;;3.85;;
4738;SDS011;2383;48.632;10.156;2023-04-28T17:44:45;6.88;;;5.60;;
4738;SDS011;2383;48.632;10.156;2023-04-28T17:48:47;12.32;;;7.15;;
4738;SDS011;2383;48.632;10.156;2023-04-28T17:52:52;7.30;;;6.57;;
4738;SDS011;2383;48.632;10.156;2023-04-28T17:57:02;7.45;;;6.57;;
4738;SDS011;2383;48.632;10.156;2023-04-28T18:01:05;6.80;;;5.68;;
4738;SDS011;2383;48.632;10.156;2023-04-28T18:05:08;11.35;;;10.15;;
4738;SDS011;2383;48.632;10.156;2023-04-28T18:09:11;10.82;;;9.43;;
4738;SDS011;2383;48.632;10.156;2023-04-28T18:13:13;6.43;;;5.82;;
4738;SDS011;2383;48.632;10.156;2023-04-28T18:17:16;5.15;;;4.28;;
4738;SDS011;2383;48.632;10.156;2023-04-28T18:21:18;7.68;;;5.35;;
4738;SDS011;2383;48.632;10.156;2023-04-28T18:25:20;13.77;;;9.48;;
4738;SDS011;2383;48.632;10.156;2023-04-28T18:29:22;7.90;;;6.45;;
4738;SDS011;2383;48.632;10.156;2023-04-28T18:33:24;8.90;;;7.25;;
4738;SDS011;2383;48.632;10.156;2023-04-28T18:37:29;6.30;;;5.55;;
4738;SDS011;2383;48.632;10.156;2023-04-28T18:41:31;8.23;;;5.57;;
4738;SDS011;2383;48.632;10.156;2023-04-28T18:45:35;12.20;;;10.50;;
4738;SDS011;2383;48.632;10.156;2023-04-28T18:49:42;14.07;;;12.43;;
4738;SDS011;2383;48.632;10.156;2023-04-28T18:53:45;12.32;;;9.55;;
4738;SDS011;2383;48.632;10.156;2023-04-28T18:57:48;15.13;;;11.75;;
4738;SDS011;2383;48.632;10.156;2023-04-28T19:01:50;12.70;;;9.77;;
4738;SDS011;2383;48.632;10.156;2023-04-28T19:05:52;12.18;;;10.40;;
4738;SDS011;2383;48.632;10.156;2023-04-28T19:09:54;10.60;;;8.80;;
4738;SDS011;2383;48.632;10.156;2023-04-28T19:14:10;11.52;;;9.75;;
4738;SDS011;2383;48.632;10.156;2023-04-28T19:18:12;9.07;;;7.15;;
4738;SDS011;2383;48.632;10.156;2023-04-28T19:22:30;7.72;;;5.88;;
4738;SDS011;2383;48.632;10.156;2023-04-28T19:26:36;7.85;;;6.20;;
4738;SDS011;2383;48.632;10.156;2023-04-28T19:30:38;8.82;;;7.57;;
4738;SDS011;2383;48.632;10.156;2023-04-28T19:34:41;9.43;;;7.57;;
4738;SDS011;2383;48.632;10.156;2023-04-28T19:38:43;8.95;;;8.05;;
4738;SDS011;2383;48.632;10.156;2023-04-28T19:42:47;9.35;;;7.90;;
4738;SDS011;2383;48.632;10.156;2023-04-28T19:46:48;9.75;;;7.70;;
4738;SDS011;2383;48.632;10.156;2023-04-28T19:50:51;9.60;;;7.78;;
4738;SDS011;2383;48.632;10.156;2023-04-28T19:54:53;9.25;;;8.35;;
4738;SDS011;2383;48.632;10.156;2023-04-28T19:58:55;10.48;;;8.65;;
4738;SDS011;2383;48.632;10.156;2023-04-28T20:02:59;13.25;;;10.15;;
4738;SDS011;2383;48.632;10.156;2023-04-28T20:07:01;10.85;;;9.60;;
4738;SDS011;2383;48.632;10.156;2023-04-28T20:11:04;10.82;;;9.73;;
4738;SDS011;2383;48.632;10.156;2023-04-28T20:15:08;9.27;;;8.32;;
4738;SDS011;2383;48.632;10.156;2023-04-28T20:19:10;9.27;;;8.38;;
4738;SDS011;2383;48.632;10.156;2023-04-28T20:23:12;10.82;;;9.73;;
4738;SDS011;2383;48.632;10.156;2023-04-28T20:27:14;12.15;;;10.70;;
4738;SDS011;2383;48.632;10.156;2023-04-28T20:31:16;11.98;;;10.65;;
4738;SDS011;2383;48.632;10.156;2023-04-28T20:35:18;13.00;;;10.00;;
4738;SDS011;2383;48.632;10.156;2023-04-28T20:39:23;10.18;;;9.07;;
4738;SDS011;2383;48.632;10.156;2023-04-28T20:43:25;10.02;;;9.02;;
4738;SDS011;2383;48.632;10.156;2023-04-28T20:47:27;10.80;;;9.70;;
4738;SDS011;2383;48.632;10.156;2023-04-28T20:51:34;11.05;;;9.90;;
4738;SDS011;2383;48.632;10.156;2023-04-28T20:55:37;12.98;;;11.63;;
4738;SDS011;2383;48.632;10.156;2023-04-28T20:59:39;11.75;;;10.55;;
4738;SDS011;2383;48.632;10.156;2023-04-28T21:03:41;12.27;;;10.98;;
4738;SDS011;2383;48.632;10.156;2023-04-28T21:07:43;13.30;;;12.00;;
4738;SDS011;2383;48.632;10.156;2023-04-28T21:11:46;13.38;;;12.00;;
4738;SDS011;2383;48.632;10.156;2023-04-28T21:15:48;13.82;;;11.93;;
4738;SDS011;2383;48.632;10.156;2023-04-28T21:19:50;19.40;;;15.10;;
4738;SDS011;2383;48.632;10.156;2023-04-28T21:23:54;18.55;;;13.95;;
4738;SDS011;2383;48.632;10.156;2023-04-28T21:27:56;19.63;;;15.95;;
4738;SDS011;2383;48.632;10.156;2023-04-28T21:32:02;18.70;;;14.60;;
4738;SDS011;2383;48.632;10.156;2023-04-28T21:36:06;18.98;;;14.27;;
4738;SDS011;2383;48.632;10.156;2023-04-28T21:40:09;20.65;;;15.43;;
4738;SDS011;2383;48.632;10.156;2023-04-28T21:44:12;18.95;;;15.68;;
4738;SDS011;2383;48.632;10.156;2023-04-28T21:48:14;16.50;;;13.95;;
4738;SDS011;2383;48.632;10.156;2023-04-28T21:52:15;21.33;;;16.20;;
4738;SDS011;2383;48.632;10.156;2023-04-28T21:56:17;21.38;;;16.55;;
4738;SDS011;2383;48.632;10.156;2023-04-28T22:00:19;18.70;;;14.90;;
4738;SDS011;2383;48.632;10.156;2023-04-28T22:04:23;24.05;;;16.58;;
4738;SDS011;2383;48.632;10.156;2023-04-28T22:08:25;21.83;;;17.60;;
4738;SDS011;2383;48.632;10.156;2023-04-28T22:12:28;21.02;;;17.30;;
4738;SDS011;2383;48.632;10.156;2023-04-28T22:16:29;23.05;;;17.30;;
4738;SDS011;2383;48.632;10.156;2023-04-28T22:20:32;21.73;;;16.88;;
4738;SDS011;2383;48.632;10.156;2023-04-28T22:24:34;25.10;;;17.60;;
4738;SDS011;2383;48.632;10.156;2023-04-28T22:28:37;24.25;;;18.13;;
4738;SDS011;2383;48.632;10.156;2023-04-28T22:32:39;25.83;;;18.42;;
4738;SDS011;2383;48.632;10.156;2023-04-28T22:36:45;22.38;;;16.90;;
4738;SDS011;2383;48.632;10.156;2023-04-28T22:40:47;20.98;;;16.08;;
4738;SDS011;2383;48.632;10.156;2023-04-28T22:44:49;19.80;;;15.05;;
4738;SDS011;2383;48.632;10.156;2023-04-28T22:48:51;21.40;;;14.40;;
4738;SDS011;2383;48.632;10.156;2023-04-28T22:52:53;17.33;;;13.90;;
4738;SDS011;2383;48.632;10.156;2023-04-28T22:56:55;16.55;;;13.68;;
4738;SDS011;2383;48.632;10.156;2023-04-28T23:01:00;14.48;;;12.60;;
4738;SDS011;2383;48.632;10.156;2023-04-28T23:05:04;15.47;;;12.87;;
4738;SDS011;2383;48.632;10.156;2023-04-28T23:09:06;15.25;;;12.52;;
4738;SDS011;2383;48.632;10.156;2023-04-28T23:13:09;16.08;;;11.93;;
4738;SDS011;2383;48.632;10.156;2023-04-28T23:17:11;13.30;;;11.88;;
4738;SDS011;2383;48.632;10.156;2023-04-28T23:21:13;12.60;;;10.97;;
4738;SDS011;2383;48.632;10.156;2023-04-28T23:25:15;18.35;;;15.27;;
4738;SDS011;2383;48.632;10.156;2023-04-28T23:29:17;14.63;;;12.80;;
4738;SDS011;2383;48.632;10.156;2023-04-28T23:33:19;13.85;;;11.52;;
4738;SDS011;2383;48.632;10.156;2023-04-28T23:37:21;12.85;;;11.32;;
4738;SDS011;2383;48.632;10.156;2023-04-28T23:41:23;12.27;;;10.98;;
4738;SDS011;2383;48.632;10.156;2023-04-28T23:45:26;12.02;;;10.52;;
4738;SDS011;2383;48.632;10.156;2023-04-28T23:49:28;11.35;;;10.15;;
4738;SDS011;2383;48.632;10.156;2023-04-28T23:53:31;37.08;;;10.55;;
4738;SDS011;2383;48.632;10.156;2023-04-28T23:57:33;18.50;;;10.80;;
